sensor_id;sensor_type;location;lat;lon;timestamp;pressure;altitude;pressure_sealevel;temperature;humidity
78016;BME280;67223;51.102;5.882;2023-07-29T00:02:04;100747.78;;;18.61;100.00
78016;BME280;67223;51.102;5.882;2023-07-29T00:04:30;100733.41;;;18.61;100.00
78016;BME280;67223;51.102;5.882;2023-07-29T00:06:55;100733.03;;;18.64;100.00
78016;BME280;67223;51.102;5.882;2023-07-29T00:09:21;100728.91;;;18.76;100.00
78016;BME280;67223;51.102;5.882;2023-07-29T00:11:46;100735.88;;;18.70;100.00
78016;BME280;67223;51.102;5.882;2023-07-29T00:14:12;100729.00;;;18.60;100.00
78016;BME280;67223;51.102;5.882;2023-07-29T00:16:37;100733.44;;;18.53;100.00
78016;BME280;67223;51.102;5.882;2023-07-29T00:19:03;100728.53;;;18.56;100.00
78016;BME280;67223;51.102;5.882;2023-07-29T00:21:29;100726.88;;;18.47;100.00
78016;BME280;67223;51.102;5.882;2023-07-29T00:23:56;100718.00;;;18.53;100.00
78016;BME280;67223;51.102;5.882;2023-07-29T00:26:23;100718.31;;;18.66;100.00
78016;BME280;67223;51.102;5.882;2023-07-29T00:28:48;100712.53;;;18.69;100.00
78016;BME280;67223;51.102;5.882;2023-07-29T00:31:14;100709.22;;;18.59;100.00
78016;BME280;67223;51.102;5.882;2023-07-29T00:33:39;100718.84;;;18.62;100.00
78016;BME280;67223;51.102;5.882;2023-07-29T00:36:05;100713.06;;;18.65;100.00
78016;BME280;67223;51.102;5.882;2023-07-29T00:38:30;100718.72;;;18.55;100.00
78016;BME280;67223;51.102;5.882;2023-07-29T00:40:57;100731.06;;;18.58;100.00
78016;BME280;67223;51.102;5.882;2023-07-29T00:43:24;100736.31;;;18.51;100.00
78016;BME280;67223;51.102;5.882;2023-07-29T00:45:49;100734.09;;;18.55;100.00
78016;BME280;67223;51.102;5.882;2023-07-29T00:48:15;100736.09;;;18.61;100.00
78016;BME280;67223;51.102;5.882;2023-07-29T00:50:40;100732.72;;;18.59;100.00
78016;BME280;67223;51.102;5.882;2023-07-29T00:53:06;100729.19;;;18.50;100.00
78016;BME280;67223;51.102;5.882;2023-07-29T00:55:32;100726.00;;;18.55;100.00
78016;BME280;67223;51.102;5.882;2023-07-29T00:57:57;100731.84;;;18.66;100.00
78016;BME280;67223;51.102;5.882;2023-07-29T01:00:23;100731.44;;;18.77;100.00
78016;BME280;67223;51.102;5.882;2023-07-29T01:02:50;100716.84;;;18.78;100.00
78016;BME280;67223;51.102;5.882;2023-07-29T01:05:17;100719.16;;;18.89;100.00
78016;BME280;67223;51.102;5.882;2023-07-29T01:07:59;100717.84;;;18.85;100.00
78016;BME280;67223;51.102;5.882;2023-07-29T01:10:52;100705.88;;;18.80;100.00
78016;BME280;67223;51.102;5.882;2023-07-29T01:15:58;100699.56;;;18.87;100.00
78016;BME280;67223;51.102;5.882;2023-07-29T01:18:31;100714.09;;;18.86;100.00
78016;BME280;67223;51.102;5.882;2023-07-29T01:21:03;100709.28;;;18.97;100.00
78016;BME280;67223;51.102;5.882;2023-07-29T01:23:34;100713.91;;;18.88;100.00
78016;BME280;67223;51.102;5.882;2023-07-29T01:26:00;100719.88;;;18.83;100.00
78016;BME280;67223;51.102;5.882;2023-07-29T01:28:29;100703.28;;;18.86;100.00
78016;BME280;67223;51.102;5.882;2023-07-29T01:31:10;100701.75;;;18.84;100.00
78016;BME280;67223;51.102;5.882;2023-07-29T01:33:44;100723.63;;;18.82;100.00
78016;BME280;67223;51.102;5.882;2023-07-29T01:36:19;100705.50;;;18.83;100.00
78016;BME280;67223;51.102;5.882;2023-07-29T01:38:47;100707.94;;;18.78;100.00
78016;BME280;67223;51.102;5.882;2023-07-29T01:41:13;100715.00;;;18.79;100.00
78016;BME280;67223;51.102;5.882;2023-07-29T01:43:39;100722.28;;;18.78;100.00
78016;BME280;67223;51.102;5.882;2023-07-29T01:46:13;100713.44;;;18.84;100.00
78016;BME280;67223;51.102;5.882;2023-07-29T01:48:39;100711.94;;;18.82;100.00
78016;BME280;67223;51.102;5.882;2023-07-29T01:51:05;100713.38;;;18.92;100.00
78016;BME280;67223;51.102;5.882;2023-07-29T01:53:31;100723.72;;;18.89;100.00
78016;BME280;67223;51.102;5.882;2023-07-29T01:55:57;100722.41;;;18.85;100.00
78016;BME280;67223;51.102;5.882;2023-07-29T01:58:23;100715.03;;;18.93;100.00
78016;BME280;67223;51.102;5.882;2023-07-29T02:00:49;100715.03;;;18.93;100.00
78016;BME280;67223;51.102;5.882;2023-07-29T02:03:14;100711.78;;;18.98;100.00
78016;BME280;67223;51.102;5.882;2023-07-29T02:05:40;100707.59;;;18.96;100.00
78016;BME280;67223;51.102;5.882;2023-07-29T02:08:07;100701.91;;;18.90;100.00
78016;BME280;67223;51.102;5.882;2023-07-29T02:10:32;100705.75;;;18.96;100.00
78016;BME280;67223;51.102;5.882;2023-07-29T02:12:58;100718.69;;;18.86;100.00
78016;BME280;67223;51.102;5.882;2023-07-29T02:15:23;100728.66;;;18.85;100.00
78016;BME280;67223;51.102;5.882;2023-07-29T02:17:50;100722.41;;;18.85;100.00
78016;BME280;67223;51.102;5.882;2023-07-29T02:20:16;100725.03;;;18.93;100.00
78016;BME280;67223;51.102;5.882;2023-07-29T02:22:41;100717.97;;;18.92;100.00
78016;BME280;67223;51.102;5.882;2023-07-29T02:25:07;100724.44;;;18.83;100.00
78016;BME280;67223;51.102;5.882;2023-07-29T02:27:32;100723.25;;;18.85;100.00
78016;BME280;67223;51.102;5.882;2023-07-29T02:29:58;100720.25;;;18.80;100.00
78016;BME280;67223;51.102;5.882;2023-07-29T02:32:24;100715.00;;;18.79;100.00
78016;BME280;67223;51.102;5.882;2023-07-29T02:34:49;100706.66;;;18.66;100.00
78016;BME280;67223;51.102;5.882;2023-07-29T02:37:15;100706.19;;;18.62;100.00
78016;BME280;67223;51.102;5.882;2023-07-29T02:39:40;100703.88;;;18.74;100.00
78016;BME280;67223;51.102;5.882;2023-07-29T02:42:05;100699.50;;;18.73;100.00
78016;BME280;67223;51.102;5.882;2023-07-29T02:44:31;100700.25;;;18.59;100.00
78016;BME280;67223;51.102;5.882;2023-07-29T02:46:57;100712.06;;;18.66;100.00
78016;BME280;67223;51.102;5.882;2023-07-29T02:49:22;100700.25;;;18.59;100.00
78016;BME280;67223;51.102;5.882;2023-07-29T02:51:48;100693.66;;;18.61;100.00
78016;BME280;67223;51.102;5.882;2023-07-29T02:54:14;100693.19;;;18.58;100.00
78016;BME280;67223;51.102;5.882;2023-07-29T02:56:40;100703.16;;;18.57;100.00
78016;BME280;67223;51.102;5.882;2023-07-29T02:59:05;100688.81;;;18.57;100.00
78016;BME280;67223;51.102;5.882;2023-07-29T03:01:34;100688.16;;;18.46;100.00
78016;BME280;67223;51.102;5.882;2023-07-29T03:03:59;100703.63;;;18.38;100.00
78016;BME280;67223;51.102;5.882;2023-07-29T03:06:25;100705.78;;;18.42;100.00
78016;BME280;67223;51.102;5.882;2023-07-29T03:08:50;100699.53;;;18.42;100.00
78016;BME280;67223;51.102;5.882;2023-07-29T03:11:16;100694.34;;;18.32;100.00
78016;BME280;67223;51.102;5.882;2023-07-29T03:13:42;100699.75;;;18.32;100.00
78016;BME280;67223;51.102;5.882;2023-07-29T03:16:09;100695.84;;;18.35;100.00
78016;BME280;67223;51.102;5.882;2023-07-29T03:18:35;100682.06;;;18.22;100.00
78016;BME280;67223;51.102;5.882;2023-07-29T03:21:01;100676.69;;;18.14;100.00
78016;BME280;67223;51.102;5.882;2023-07-29T03:23:28;100673.03;;;18.06;100.00
78016;BME280;67223;51.102;5.882;2023-07-29T03:25:58;100684.22;;;17.95;100.00
78016;BME280;67223;51.102;5.882;2023-07-29T03:28:26;100695.94;;;17.88;100.00
78016;BME280;67223;51.102;5.882;2023-07-29T03:30:53;100695.63;;;17.83;100.00
78016;BME280;67223;51.102;5.882;2023-07-29T03:33:18;100695.63;;;17.83;100.00
78016;BME280;67223;51.102;5.882;2023-07-29T03:35:44;100688.78;;;17.95;100.00
78016;BME280;67223;51.102;5.882;2023-07-29T03:38:10;100681.53;;;17.95;100.00
78016;BME280;67223;51.102;5.882;2023-07-29T03:40:37;100691.00;;;17.91;100.00
78016;BME280;67223;51.102;5.882;2023-07-29T03:43:02;100697.81;;;17.79;100.00
78016;BME280;67223;51.102;5.882;2023-07-29T03:45:28;100707.84;;;17.62;100.00
78016;BME280;67223;51.102;5.882;2023-07-29T03:47:53;100712.34;;;17.54;100.00
78016;BME280;67223;51.102;5.882;2023-07-29T03:50:18;100709.00;;;17.60;100.00
78016;BME280;67223;51.102;5.882;2023-07-29T03:52:46;100717.47;;;17.41;100.00
78016;BME280;67223;51.102;5.882;2023-07-29T03:55:12;100726.25;;;17.43;100.00
78016;BME280;67223;51.102;5.882;2023-07-29T03:57:37;100732.81;;;17.48;100.00
78016;BME280;67223;51.102;5.882;2023-07-29T04:00:03;100716.63;;;17.40;100.00
78016;BME280;67223;51.102;5.882;2023-07-29T04:05:05;100716.44;;;17.66;100.00
78016;BME280;67223;51.102;5.882;2023-07-29T04:07:34;100695.19;;;17.47;100.00
78016;BME280;67223;51.102;5.882;2023-07-29T04:09:59;100707.03;;;17.30;100.00
78016;BME280;67223;51.102;5.882;2023-07-29T04:12:24;100714.78;;;17.25;100.00
78016;BME280;67223;51.102;5.882;2023-07-29T04:14:50;100700.97;;;17.28;100.00
78016;BME280;67223;51.102;5.882;2023-07-29T04:17:15;100686.75;;;17.42;100.00
78016;BME280;67223;51.102;5.882;2023-07-29T04:19:41;100678.13;;;17.46;100.00
78016;BME280;67223;51.102;5.882;2023-07-29T04:22:06;100671.28;;;17.28;100.00
78016;BME280;67223;51.102;5.882;2023-07-29T04:24:32;100681.88;;;17.37;100.00
78016;BME280;67223;51.102;5.882;2023-07-29T04:26:57;100692.69;;;17.37;100.00
78016;BME280;67223;51.102;5.882;2023-07-29T04:29:22;100676.28;;;17.39;100.00
78016;BME280;67223;51.102;5.882;2023-07-29T04:31:49;100682.91;;;17.20;100.00
78016;BME280;67223;51.102;5.882;2023-07-29T04:34:15;100684.44;;;17.14;100.00
78016;BME280;67223;51.102;5.882;2023-07-29T04:36:40;100700.63;;;17.23;100.00
78016;BME280;67223;51.102;5.882;2023-07-29T04:39:06;100710.06;;;17.18;100.00
78016;BME280;67223;51.102;5.882;2023-07-29T04:41:31;100710.72;;;17.29;100.00
78016;BME280;67223;51.102;5.882;2023-07-29T04:43:56;100711.75;;;17.36;100.00
78016;BME280;67223;51.102;5.882;2023-07-29T04:46:22;100722.22;;;17.23;100.00
78016;BME280;67223;51.102;5.882;2023-07-29T04:48:47;100724.59;;;17.09;100.00
78016;BME280;67223;51.102;5.882;2023-07-29T04:51:13;100731.00;;;17.08;100.00
78016;BME280;67223;51.102;5.882;2023-07-29T04:53:38;100731.00;;;17.08;100.00
78016;BME280;67223;51.102;5.882;2023-07-29T04:56:04;100722.91;;;17.16;100.00
78016;BME280;67223;51.102;5.882;2023-07-29T04:58:33;100714.97;;;17.23;100.00
78016;BME280;67223;51.102;5.882;2023-07-29T05:01:01;100717.66;;;17.31;100.00
78016;BME280;67223;51.102;5.882;2023-07-29T05:03:27;100711.75;;;17.36;100.00
78016;BME280;67223;51.102;5.882;2023-07-29T05:05:53;100732.50;;;17.19;100.00
78016;BME280;67223;51.102;5.882;2023-07-29T05:08:20;100751.09;;;17.93;100.00
78016;BME280;67223;51.102;5.882;2023-07-29T05:10:49;100742.19;;;18.24;100.00
78016;BME280;67223;51.102;5.882;2023-07-29T05:13:15;100733.59;;;17.81;100.00
78016;BME280;67223;51.102;5.882;2023-07-29T05:15:40;100740.66;;;17.90;100.00
78016;BME280;67223;51.102;5.882;2023-07-29T05:18:06;100731.22;;;18.48;100.00
78016;BME280;67223;51.102;5.882;2023-07-29T05:20:31;100733.09;;;18.56;100.00
78016;BME280;67223;51.102;5.882;2023-07-29T05:22:57;100738.75;;;18.38;100.00
78016;BME280;67223;51.102;5.882;2023-07-29T05:25:22;100720.25;;;18.80;100.00
78016;BME280;67223;51.102;5.882;2023-07-29T05:27:47;100722.81;;;19.34;100.00
78016;BME280;67223;51.102;5.882;2023-07-29T05:30:13;100709.84;;;20.03;100.00
78016;BME280;67223;51.102;5.882;2023-07-29T05:32:38;100715.41;;;19.65;100.00
78016;BME280;67223;51.102;5.882;2023-07-29T05:35:04;100727.66;;;19.76;100.00
78016;BME280;67223;51.102;5.882;2023-07-29T05:37:29;100735.69;;;19.69;100.00
78016;BME280;67223;51.102;5.882;2023-07-29T05:39:55;100723.13;;;19.98;100.00
78016;BME280;67223;51.102;5.882;2023-07-29T05:42:20;100714.19;;;20.48;100.00
78016;BME280;67223;51.102;5.882;2023-07-29T05:44:46;100713.72;;;19.64;100.00
78016;BME280;67223;51.102;5.882;2023-07-29T05:47:11;100717.38;;;19.19;100.00
78016;BME280;67223;51.102;5.882;2023-07-29T05:49:36;100731.56;;;19.21;100.00
78016;BME280;67223;51.102;5.882;2023-07-29T05:52:02;100728.28;;;19.93;100.00
78016;BME280;67223;51.102;5.882;2023-07-29T05:54:28;100731.47;;;19.52;100.00
78016;BME280;67223;51.102;5.882;2023-07-29T05:56:54;100730.19;;;19.40;100.00
78016;BME280;67223;51.102;5.882;2023-07-29T05:59:19;100721.00;;;19.78;100.00
78016;BME280;67223;51.102;5.882;2023-07-29T06:01:45;100718.88;;;19.22;100.00
78016;BME280;67223;51.102;5.882;2023-07-29T06:04:10;100708.66;;;18.41;100.00
78016;BME280;67223;51.102;5.882;2023-07-29T06:06:35;100737.28;;;19.26;100.00
78016;BME280;67223;51.102;5.882;2023-07-29T06:09:01;100741.84;;;19.03;100.00
78016;BME280;67223;51.102;5.882;2023-07-29T06:11:26;100740.25;;;19.54;100.00
78016;BME280;67223;51.102;5.882;2023-07-29T06:13:51;100730.91;;;19.57;100.00
78016;BME280;67223;51.102;5.882;2023-07-29T06:16:17;100735.75;;;19.47;100.00
78016;BME280;67223;51.102;5.882;2023-07-29T06:18:42;100723.69;;;20.08;100.00
78016;BME280;67223;51.102;5.882;2023-07-29T06:21:08;100721.84;;;19.50;100.00
78016;BME280;67223;51.102;5.882;2023-07-29T06:23:36;100720.84;;;20.45;100.00
78016;BME280;67223;51.102;5.882;2023-07-29T06:26:02;100719.88;;;19.58;100.00
78016;BME280;67223;51.102;5.882;2023-07-29T06:28:27;100730.22;;;20.13;100.00
78016;BME280;67223;51.102;5.882;2023-07-29T06:30:52;100727.72;;;20.84;100.00
78016;BME280;67223;51.102;5.882;2023-07-29T06:33:18;100727.16;;;20.31;100.00
78016;BME280;67223;51.102;5.882;2023-07-29T06:35:43;100728.28;;;19.78;100.00
78016;BME280;67223;51.102;5.882;2023-07-29T06:38:09;100740.06;;;19.70;100.00
78016;BME280;67223;51.102;5.882;2023-07-29T06:40:34;100734.06;;;19.46;100.00
78016;BME280;67223;51.102;5.882;2023-07-29T06:43:00;100736.50;;;19.99;100.00
78016;BME280;67223;51.102;5.882;2023-07-29T06:45:26;100741.03;;;19.92;100.00
78016;BME280;67223;51.102;5.882;2023-07-29T06:47:51;100733.97;;;19.68;100.00
78016;BME280;67223;51.102;5.882;2023-07-29T06:50:17;100726.09;;;20.68;100.00
78016;BME280;67223;51.102;5.882;2023-07-29T06:52:42;100720.66;;;20.68;100.00
78016;BME280;67223;51.102;5.882;2023-07-29T06:55:08;100714.91;;;20.20;100.00
78016;BME280;67223;51.102;5.882;2023-07-29T06:57:33;100714.03;;;20.71;100.00
78016;BME280;67223;51.102;5.882;2023-07-29T06:59:59;100719.56;;;20.41;100.00
78016;BME280;67223;51.102;5.882;2023-07-29T07:02:24;100722.84;;;19.93;100.00
78016;BME280;67223;51.102;5.882;2023-07-29T07:04:50;100721.25;;;20.63;100.00
78016;BME280;67223;51.102;5.882;2023-07-29T07:07:15;100726.03;;;21.04;100.00
78016;BME280;67223;51.102;5.882;2023-07-29T07:09:41;100724.72;;;20.36;100.00
78016;BME280;67223;51.102;5.882;2023-07-29T07:12:07;100716.97;;;20.54;100.00
78016;BME280;67223;51.102;5.882;2023-07-29T07:14:33;100715.25;;;20.47;100.00
78016;BME280;67223;51.102;5.882;2023-07-29T07:16:58;100719.31;;;20.79;100.00
78016;BME280;67223;51.102;5.882;2023-07-29T07:19:24;100708.19;;;21.44;100.00
78016;BME280;67223;51.102;5.882;2023-07-29T07:21:49;100699.59;;;22.09;100.00
78016;BME280;67223;51.102;5.882;2023-07-29T07:24:14;100709.25;;;21.15;100.00
78016;BME280;67223;51.102;5.882;2023-07-29T07:26:40;100709.03;;;21.79;100.00
78016;BME280;67223;51.102;5.882;2023-07-29T07:29:05;100708.28;;;21.57;100.00
78016;BME280;67223;51.102;5.882;2023-07-29T07:31:33;100707.34;;;22.12;100.00
78016;BME280;67223;51.102;5.882;2023-07-29T07:33:58;100705.47;;;22.06;99.55
78016;BME280;67223;51.102;5.882;2023-07-29T07:36:24;100700.97;;;22.40;97.28
78016;BME280;67223;51.102;5.882;2023-07-29T07:38:49;100705.41;;;22.54;95.15
78016;BME280;67223;51.102;5.882;2023-07-29T07:41:14;100705.28;;;22.88;92.86
78016;BME280;67223;51.102;5.882;2023-07-29T07:43:40;100701.28;;;22.78;92.85
78016;BME280;67223;51.102;5.882;2023-07-29T07:46:05;100703.41;;;22.95;93.20
78016;BME280;67223;51.102;5.882;2023-07-29T07:48:31;100697.00;;;22.49;93.94
78016;BME280;67223;51.102;5.882;2023-07-29T07:50:58;100693.75;;;22.93;91.93
78016;BME280;67223;51.102;5.882;2023-07-29T07:53:24;100687.06;;;23.02;90.41
78016;BME280;67223;51.102;5.882;2023-07-29T07:55:51;100698.81;;;23.15;89.34
78016;BME280;67223;51.102;5.882;2023-07-29T07:58:16;100689.78;;;23.48;88.80
78016;BME280;67223;51.102;5.882;2023-07-29T08:00:42;100700.44;;;23.43;88.80
78016;BME280;67223;51.102;5.882;2023-07-29T08:03:08;100689.59;;;23.10;88.61
78016;BME280;67223;51.102;5.882;2023-07-29T08:05:33;100695.03;;;23.23;87.69
78016;BME280;67223;51.102;5.882;2023-07-29T08:07:59;100698.59;;;23.30;86.37
78016;BME280;67223;51.102;5.882;2023-07-29T08:10:24;100701.75;;;23.21;87.09
78016;BME280;67223;51.102;5.882;2023-07-29T08:12:49;100709.25;;;23.38;86.81
78016;BME280;67223;51.102;5.882;2023-07-29T08:15:15;100704.88;;;23.31;88.35
78016;BME280;67223;51.102;5.882;2023-07-29T08:17:41;100703.41;;;22.89;85.89
78016;BME280;67223;51.102;5.882;2023-07-29T08:20:07;100712.19;;;22.97;88.31
78016;BME280;67223;51.102;5.882;2023-07-29T08:22:33;100704.00;;;23.37;89.04
78016;BME280;67223;51.102;5.882;2023-07-29T08:24:58;100703.00;;;23.51;85.56
78016;BME280;67223;51.102;5.882;2023-07-29T08:27:23;100706.13;;;23.48;85.43
78016;BME280;67223;51.102;5.882;2023-07-29T08:29:49;100700.19;;;23.84;83.17
78016;BME280;67223;51.102;5.882;2023-07-29T08:32:14;100706.97;;;23.55;84.37
78016;BME280;67223;51.102;5.882;2023-07-29T08:34:39;100709.06;;;23.13;85.71
78016;BME280;67223;51.102;5.882;2023-07-29T08:37:05;100714.72;;;22.92;87.04
78016;BME280;67223;51.102;5.882;2023-07-29T08:39:31;100727.06;;;23.01;87.20
78016;BME280;67223;51.102;5.882;2023-07-29T08:42:04;100728.13;;;22.81;86.93
78016;BME280;67223;51.102;5.882;2023-07-29T08:44:42;100737.44;;;22.58;88.08
78016;BME280;67223;51.102;5.882;2023-07-29T08:47:09;100736.53;;;22.38;90.24
78016;BME280;67223;51.102;5.882;2023-07-29T08:49:35;100745.81;;;22.57;91.24
78016;BME280;67223;51.102;5.882;2023-07-29T08:52:02;100743.97;;;21.82;92.27
78016;BME280;67223;51.102;5.882;2023-07-29T08:54:28;100742.13;;;22.71;89.69
78016;BME280;67223;51.102;5.882;2023-07-29T08:56:54;100741.28;;;22.77;88.25
78016;BME280;67223;51.102;5.882;2023-07-29T08:59:19;100732.31;;;22.90;87.96
78016;BME280;67223;51.102;5.882;2023-07-29T09:01:46;100747.75;;;22.15;90.30
78016;BME280;67223;51.102;5.882;2023-07-29T09:04:12;100741.63;;;22.00;92.50
78016;BME280;67223;51.102;5.882;2023-07-29T09:06:39;100744.09;;;22.36;92.97
78016;BME280;67223;51.102;5.882;2023-07-29T09:09:05;100732.69;;;22.73;89.99
78016;BME280;67223;51.102;5.882;2023-07-29T09:11:32;100739.72;;;22.48;91.58
78016;BME280;67223;51.102;5.882;2023-07-29T09:13:58;100732.66;;;22.67;91.68
78016;BME280;67223;51.102;5.882;2023-07-29T09:16:24;100714.31;;;23.28;88.52
78016;BME280;67223;51.102;5.882;2023-07-29T09:18:51;100715.34;;;22.94;86.75
78016;BME280;67223;51.102;5.882;2023-07-29T09:21:24;100706.34;;;23.13;87.01
78016;BME280;67223;51.102;5.882;2023-07-29T09:23:54;100717.44;;;23.32;87.71
78016;BME280;67223;51.102;5.882;2023-07-29T09:26:27;100713.47;;;23.47;85.59
78016;BME280;67223;51.102;5.882;2023-07-29T09:28:57;100711.34;;;23.63;84.55
78016;BME280;67223;51.102;5.882;2023-07-29T09:31:25;100712.81;;;23.65;83.66
78016;BME280;67223;51.102;5.882;2023-07-29T09:33:59;100709.00;;;24.37;83.88
78016;BME280;67223;51.102;5.882;2023-07-29T09:36:26;100695.72;;;24.02;80.25
78016;BME280;67223;51.102;5.882;2023-07-29T09:38:56;100703.00;;;24.98;79.20
78016;BME280;67223;51.102;5.882;2023-07-29T09:41:26;100710.59;;;24.07;79.93
78016;BME280;67223;51.102;5.882;2023-07-29T09:44:00;100708.16;;;24.43;79.16
78016;BME280;67223;51.102;5.882;2023-07-29T09:46:35;100699.66;;;24.07;78.23
78016;BME280;67223;51.102;5.882;2023-07-29T09:49:03;100699.84;;;23.61;80.23
78016;BME280;67223;51.102;5.882;2023-07-29T09:51:28;100696.53;;;24.54;79.29
78016;BME280;67223;51.102;5.882;2023-07-29T09:53:55;100716.41;;;24.30;78.77
78016;BME280;67223;51.102;5.882;2023-07-29T09:56:25;100700.69;;;24.63;79.05
78016;BME280;67223;51.102;5.882;2023-07-29T09:58:51;100706.72;;;24.34;77.80
78016;BME280;67223;51.102;5.882;2023-07-29T10:01:17;100704.03;;;23.24;79.05
78016;BME280;67223;51.102;5.882;2023-07-29T10:03:44;100713.88;;;23.44;81.94
78016;BME280;67223;51.102;5.882;2023-07-29T10:06:10;100714.75;;;23.45;83.66
78016;BME280;67223;51.102;5.882;2023-07-29T10:08:36;100715.13;;;23.68;82.50
78016;BME280;67223;51.102;5.882;2023-07-29T10:11:09;100706.78;;;23.50;83.36
78016;BME280;67223;51.102;5.882;2023-07-29T10:13:35;100708.16;;;23.79;81.75
78016;BME280;67223;51.102;5.882;2023-07-29T10:16:02;100702.91;;;23.77;82.21
78016;BME280;67223;51.102;5.882;2023-07-29T10:18:28;100703.75;;;23.78;81.54
78016;BME280;67223;51.102;5.882;2023-07-29T10:20:54;100701.94;;;23.58;82.23
78016;BME280;67223;51.102;5.882;2023-07-29T10:23:21;100694.78;;;23.64;82.02
78016;BME280;67223;51.102;5.882;2023-07-29T10:25:50;100701.63;;;23.86;81.14
78016;BME280;67223;51.102;5.882;2023-07-29T10:28:21;100704.47;;;24.24;80.39
78016;BME280;67223;51.102;5.882;2023-07-29T10:30:51;100704.81;;;23.83;79.29
78016;BME280;67223;51.102;5.882;2023-07-29T10:33:17;100704.91;;;24.59;78.84
78016;BME280;67223;51.102;5.882;2023-07-29T10:35:43;100702.69;;;25.30;74.66
78016;BME280;67223;51.102;5.882;2023-07-29T10:38:09;100691.38;;;25.27;74.89
78016;BME280;67223;51.102;5.882;2023-07-29T10:40:54;100687.25;;;25.43;70.72
78016;BME280;67223;51.102;5.882;2023-07-29T10:43:33;100684.81;;;24.78;70.56
78016;BME280;67223;51.102;5.882;2023-07-29T10:46:21;100687.66;;;24.97;73.73
78016;BME280;67223;51.102;5.882;2023-07-29T10:51:34;100689.28;;;25.29;71.29
78016;BME280;67223;51.102;5.882;2023-07-29T10:54:10;100686.41;;;24.23;74.96
78016;BME280;67223;51.102;5.882;2023-07-29T10:56:36;100691.53;;;24.76;74.39
78016;BME280;67223;51.102;5.882;2023-07-29T10:59:31;100690.16;;;24.35;73.64
78016;BME280;67223;51.102;5.882;2023-07-29T11:01:59;100691.22;;;24.28;74.85
78016;BME280;67223;51.102;5.882;2023-07-29T11:04:29;100677.72;;;23.88;76.68
78016;BME280;67223;51.102;5.882;2023-07-29T11:15:32;100667.19;;;23.98;76.69
78016;BME280;67223;51.102;5.882;2023-07-29T11:18:00;100670.75;;;24.50;74.32
78016;BME280;67223;51.102;5.882;2023-07-29T11:22:54;100677.28;;;24.74;74.77
78016;BME280;67223;51.102;5.882;2023-07-29T11:25:22;100670.72;;;24.81;74.12
78016;BME280;67223;51.102;5.882;2023-07-29T11:27:47;100673.31;;;23.87;74.51
78016;BME280;67223;51.102;5.882;2023-07-29T11:30:14;100666.47;;;24.16;77.14
78016;BME280;67223;51.102;5.882;2023-07-29T11:32:41;100662.25;;;23.76;77.27
78016;BME280;67223;51.102;5.882;2023-07-29T11:35:09;100671.94;;;23.39;79.02
78016;BME280;67223;51.102;5.882;2023-07-29T11:37:36;100665.69;;;24.02;78.60
78016;BME280;67223;51.102;5.882;2023-07-29T11:40:03;100661.94;;;24.41;76.30
78016;BME280;67223;51.102;5.882;2023-07-29T11:42:31;100656.63;;;24.84;74.32
78016;BME280;67223;51.102;5.882;2023-07-29T11:44:58;100647.78;;;24.89;73.22
78016;BME280;67223;51.102;5.882;2023-07-29T11:47:24;100649.09;;;24.49;74.01
78016;BME280;67223;51.102;5.882;2023-07-29T11:49:50;100647.38;;;24.23;75.94
78016;BME280;67223;51.102;5.882;2023-07-29T11:52:15;100660.44;;;24.01;76.92
78016;BME280;67223;51.102;5.882;2023-07-29T11:54:44;100659.47;;;24.40;76.82
78016;BME280;67223;51.102;5.882;2023-07-29T11:57:10;100658.53;;;24.15;76.88
78016;BME280;67223;51.102;5.882;2023-07-29T11:59:36;100660.72;;;24.69;78.53
78016;BME280;67223;51.102;5.882;2023-07-29T12:02:09;100656.19;;;24.56;79.28
78016;BME280;67223;51.102;5.882;2023-07-29T12:04:36;100663.72;;;24.29;78.82
78016;BME280;67223;51.102;5.882;2023-07-29T12:07:02;100678.03;;;23.61;84.46
78016;BME280;67223;51.102;5.882;2023-07-29T12:09:28;100669.94;;;23.92;83.89
78016;BME280;67223;51.102;5.882;2023-07-29T12:11:55;100673.63;;;23.40;84.80
78016;BME280;67223;51.102;5.882;2023-07-29T12:14:20;100673.03;;;23.51;85.39
78016;BME280;67223;51.102;5.882;2023-07-29T12:16:48;100671.94;;;23.39;86.53
78016;BME280;67223;51.102;5.882;2023-07-29T12:19:14;100661.69;;;23.41;88.38
78016;BME280;67223;51.102;5.882;2023-07-29T12:21:41;100651.63;;;23.22;89.71
78016;BME280;67223;51.102;5.882;2023-07-29T12:24:07;100650.38;;;23.31;90.22
78016;BME280;67223;51.102;5.882;2023-07-29T12:26:33;100648.91;;;23.28;89.46
78016;BME280;67223;51.102;5.882;2023-07-29T12:28:59;100649.34;;;23.05;91.13
78016;BME280;67223;51.102;5.882;2023-07-29T12:31:31;100660.88;;;23.14;90.53
78016;BME280;67223;51.102;5.882;2023-07-29T12:33:57;100662.97;;;22.92;92.13
78016;BME280;67223;51.102;5.882;2023-07-29T12:36:27;100668.63;;;23.04;92.22
78016;BME280;67223;51.102;5.882;2023-07-29T12:39:05;100666.97;;;22.96;92.30
78016;BME280;67223;51.102;5.882;2023-07-29T12:41:30;100682.44;;;23.22;92.04
78016;BME280;67223;51.102;5.882;2023-07-29T12:43:55;100690.00;;;23.00;90.74
78016;BME280;67223;51.102;5.882;2023-07-29T12:46:21;100690.19;;;23.32;90.27
78016;BME280;67223;51.102;5.882;2023-07-29T12:48:46;100685.78;;;23.57;86.63
78016;BME280;67223;51.102;5.882;2023-07-29T12:51:12;100691.47;;;23.29;89.35
78016;BME280;67223;51.102;5.882;2023-07-29T12:53:37;100699.66;;;23.16;89.46
78016;BME280;67223;51.102;5.882;2023-07-29T12:56:03;100707.97;;;23.67;85.65
78016;BME280;67223;51.102;5.882;2023-07-29T12:58:28;100717.44;;;23.18;89.13
78016;BME280;67223;51.102;5.882;2023-07-29T13:00:54;100730.06;;;22.39;92.99